Time;durP1;ratioP1;P1;durP2;ratioP2;P2;SDS_P1;SDS_P2;PMS_P1;PMS_P2;Temp;Humidity;BMP_temperature;BMP_pressure;BME280_temperature;BME280_humidity;BME280_pressure;Samples;Min_cycle;Max_cycle;Signal;HPM_P1;HPM_P2
2023/10/18 00:00:29;;;;;;;6.63;4.43;;;;;;;;;;5007867;28;20404;-80
2023/10/18 00:02:56;;;;;;;6.22;4.60;;;;;;;;;;5011013;28;20050;-80
2023/10/18 00:05:26;;;;;;;10.02;4.72;;;;;;;;;;5005740;28;20435;-80
2023/10/18 00:07:56;;;;;;;7.28;5.43;;;;;;;;;;5024226;28;20050;-80
2023/10/18 00:10:27;;;;;;;8.48;5.32;;;;;;;;;;5026201;28;20049;-80
2023/10/18 00:12:59;;;;;;;10.05;5.45;;;;;;;;;;5000266;28;20045;-80
2023/10/18 00:15:26;;;;;;;5.05;4.63;;;;;;;;;;4999165;28;20046;-80
2023/10/18 00:17:55;;;;;;;7.57;5.15;;;;;;;;;;5000323;28;20046;-80
2023/10/18 00:20:23;;;;;;;5.75;5.15;;;;;;;;;;5021229;28;20057;-80
2023/10/18 00:22:51;;;;;;;5.50;4.88;;;;;;;;;;5015452;28;20042;-80
2023/10/18 00:25:20;;;;;;;7.15;4.90;;;;;;;;;;5018145;28;20050;-80
2023/10/18 00:27:50;;;;;;;8.07;5.38;;;;;;;;;;4991673;28;20061;-80
2023/10/18 00:30:20;;;;;;;5.82;5.25;;;;;;;;;;5016060;28;20061;-80
2023/10/18 00:32:49;;;;;;;8.50;5.78;;;;;;;;;;4999308;28;20050;-80
2023/10/18 00:35:20;;;;;;;6.20;5.32;;;;;;;;;;5003836;28;20056;-80
2023/10/18 00:37:54;;;;;;;7.53;5.30;;;;;;;;;;4997822;28;20265;-80
2023/10/18 00:40:33;;;;;;;9.43;5.78;;;;;;;;;;5008226;28;20049;-80
2023/10/18 00:43:07;;;;;;;8.38;5.00;;;;;;;;;;5019526;28;20523;-80
2023/10/18 00:45:43;;;;;;;7.20;6.00;;;;;;;;;;5004141;28;20057;-80
2023/10/18 00:48:12;;;;;;;7.70;5.95;;;;;;;;;;4992321;28;20053;-80
2023/10/18 00:50:43;;;;;;;5.70;5.03;;;;;;;;;;4998590;28;20053;-80
2023/10/18 00:53:20;;;;;;;13.98;6.10;;;;;;;;;;5019268;28;20038;-80
2023/10/18 00:55:57;;;;;;;6.18;5.53;;;;;;;;;;4989590;28;20046;-80
2023/10/18 00:58:24;;;;;;;8.25;6.75;;;;;;;;;;5010801;28;20054;-80
2023/10/18 01:00:56;;;;;;;5.35;4.75;;;;;;;;;;5018657;28;20117;-80
2023/10/18 01:03:30;;;;;;;9.00;6.63;;;;;;;;;;5014568;28;20060;-80
2023/10/18 01:06:03;;;;;;;6.82;5.50;;;;;;;;;;5004772;22;20058;-83
2023/10/18 01:08:32;;;;;;;7.50;6.22;;;;;;;;;;4967656;28;20046;-83
2023/10/18 01:11:04;;;;;;;6.50;5.57;;;;;;;;;;4985669;28;20061;-84
2023/10/18 01:13:40;;;;;;;5.57;4.38;;;;;;;;;;4972182;28;20043;-83
2023/10/18 01:16:14;;;;;;;9.10;5.47;;;;;;;;;;4972609;28;20059;-83
2023/10/18 01:18:44;;;;;;;9.13;5.93;;;;;;;;;;4966925;28;20051;-84
2023/10/18 01:21:15;;;;;;;6.03;4.93;;;;;;;;;;4979209;28;20054;-83
2023/10/18 01:23:50;;;;;;;7.28;6.53;;;;;;;;;;4973594;28;20051;-84
2023/10/18 01:26:20;;;;;;;14.05;6.88;;;;;;;;;;4988887;28;20050;-83
2023/10/18 01:28:47;;;;;;;6.95;6.22;;;;;;;;;;4971939;28;20045;-83
2023/10/18 01:31:17;;;;;;;8.23;5.90;;;;;;;;;;5000476;28;20051;-83
2023/10/18 01:33:46;;;;;;;8.50;6.75;;;;;;;;;;4972232;28;20410;-83
2023/10/18 01:36:16;;;;;;;8.93;5.93;;;;;;;;;;4955570;28;20054;-83
2023/10/18 01:38:48;;;;;;;6.38;4.78;;;;;;;;;;4987979;28;20050;-84
2023/10/18 01:41:27;;;;;;;12.52;5.65;;;;;;;;;;4983134;28;20046;-83
2023/10/18 01:43:55;;;;;;;8.32;5.15;;;;;;;;;;4952963;28;20533;-83
2023/10/18 01:46:24;;;;;;;7.95;5.40;;;;;;;;;;4963790;28;20058;-84
2023/10/18 01:48:55;;;;;;;6.32;5.68;;;;;;;;;;4975430;28;20517;-83
2023/10/18 01:51:22;;;;;;;10.27;5.40;;;;;;;;;;4953782;28;20042;-84
2023/10/18 01:53:50;;;;;;;5.78;5.10;;;;;;;;;;4963776;28;20062;-83
2023/10/18 01:56:22;;;;;;;7.75;5.40;;;;;;;;;;4960967;28;20053;-83
2023/10/18 01:58:50;;;;;;;6.40;4.80;;;;;;;;;;4961525;28;20058;-83
2023/10/18 02:01:18;;;;;;;5.63;4.53;;;;;;;;;;4986951;28;20416;-83
2023/10/18 02:03:46;;;;;;;8.90;5.95;;;;;;;;;;4963474;28;20174;-82
2023/10/18 02:06:15;;;;;;;7.35;4.95;;;;;;;;;;4965800;28;20533;-82
2023/10/18 02:08:42;;;;;;;12.13;6.28;;;;;;;;;;4977955;28;20046;-82
2023/10/18 02:11:11;;;;;;;8.02;6.43;;;;;;;;;;4989753;28;20053;-83
2023/10/18 02:13:41;;;;;;;6.97;4.90;;;;;;;;;;4989033;28;20393;-83
2023/10/18 02:16:15;;;;;;;9.52;6.68;;;;;;;;;;4990447;28;20402;-83
2023/10/18 02:18:44;;;;;;;5.50;4.97;;;;;;;;;;4983829;28;20055;-82
2023/10/18 02:21:16;;;;;;;5.75;4.82;;;;;;;;;;5002692;28;20054;-82
2023/10/18 02:23:48;;;;;;;8.63;6.63;;;;;;;;;;4986278;28;20501;-82
2023/10/18 02:26:30;;;;;;;8.07;5.72;;;;;;;;;;5008956;28;20062;-83
2023/10/18 02:29:05;;;;;;;8.45;5.95;;;;;;;;;;4975936;28;20054;-82
2023/10/18 02:31:35;;;;;;;9.85;6.10;;;;;;;;;;4962485;28;20043;-82
2023/10/18 02:34:04;;;;;;;13.35;7.05;;;;;;;;;;4980352;28;20409;-82
2023/10/18 02:36:38;;;;;;;9.73;6.60;;;;;;;;;;4979748;28;20055;-83
2023/10/18 02:39:08;;;;;;;8.80;6.43;;;;;;;;;;4985746;28;20055;-82
2023/10/18 02:41:41;;;;;;;9.07;6.75;;;;;;;;;;4961501;28;20054;-82
2023/10/18 02:44:21;;;;;;;7.65;5.88;;;;;;;;;;4967065;28;20516;-82
2023/10/18 02:46:52;;;;;;;9.32;7.93;;;;;;;;;;4975534;28;20050;-82
2023/10/18 02:49:23;;;;;;;6.53;5.30;;;;;;;;;;4993013;28;20050;-82
2023/10/18 02:51:51;;;;;;;11.65;7.10;;;;;;;;;;4959196;28;20058;-82
2023/10/18 02:54:22;;;;;;;9.10;5.82;;;;;;;;;;4977917;28;20054;-82
2023/10/18 02:56:52;;;;;;;10.05;7.45;;;;;;;;;;4955315;28;20051;-82
2023/10/18 02:59:24;;;;;;;7.50;6.60;;;;;;;;;;4970651;28;20047;-82
2023/10/18 03:01:54;;;;;;;6.45;5.15;;;;;;;;;;4999031;28;20485;-82
2023/10/18 03:04:29;;;;;;;7.25;6.22;;;;;;;;;;4949004;28;20053;-83
2023/10/18 03:06:56;;;;;;;8.50;6.30;;;;;;;;;;4967684;28;20062;-82
2023/10/18 03:09:28;;;;;;;7.45;5.65;;;;;;;;;;4970625;28;20489;-82
2023/10/18 03:11:56;;;;;;;7.05;5.95;;;;;;;;;;4950750;28;20481;-82
2023/10/18 03:14:39;;;;;;;9.05;7.18;;;;;;;;;;4971037;28;20145;-82
2023/10/18 03:17:19;;;;;;;7.70;6.00;;;;;;;;;;4987524;28;20061;-82
2023/10/18 03:19:49;;;;;;;8.18;6.70;;;;;;;;;;4969607;28;20062;-82
2023/10/18 03:22:21;;;;;;;9.20;6.32;;;;;;;;;;4971139;28;20501;-82
2023/10/18 03:24:53;;;;;;;8.35;6.10;;;;;;;;;;4956752;28;20047;-82
2023/10/18 03:27:20;;;;;;;16.02;10.52;;;;;;;;;;5003915;28;20058;-82
2023/10/18 03:29:57;;;;;;;14.23;10.43;;;;;;;;;;4983438;28;20050;-82
2023/10/18 03:32:30;;;;;;;13.05;9.52;;;;;;;;;;4952876;28;20077;-82
2023/10/18 03:34:59;;;;;;;16.70;12.02;;;;;;;;;;4968653;28;20078;-82
2023/10/18 03:37:26;;;;;;;13.20;10.38;;;;;;;;;;4970441;28;20054;-82
2023/10/18 03:39:53;;;;;;;16.10;11.90;;;;;;;;;;4954427;28;20053;-82
2023/10/18 03:42:32;;;;;;;19.08;10.63;;;;;;;;;;4953161;28;20058;-82
2023/10/18 03:45:09;;;;;;;12.52;9.65;;;;;;;;;;4984717;28;20058;-81
2023/10/18 03:47:39;;;;;;;12.88;9.40;;;;;;;;;;4954483;28;20046;-82
2023/10/18 03:50:14;;;;;;;12.65;10.05;;;;;;;;;;4955131;28;20047;-82
2023/10/18 03:52:46;;;;;;;12.35;9.70;;;;;;;;;;4970754;28;20487;-82
2023/10/18 03:55:17;;;;;;;13.52;10.65;;;;;;;;;;4977134;28;20054;-82
2023/10/18 03:57:44;;;;;;;10.10;8.30;;;;;;;;;;4973985;28;20062;-81
2023/10/18 04:00:37;;;;;;;13.88;9.13;;;;;;;;;;4971417;28;20066;-82
2023/10/18 04:03:10;;;;;;;11.13;9.98;;;;;;;;;;4968491;28;20061;-82
2023/10/18 04:05:43;;;;;;;11.85;8.10;;;;;;;;;;4986662;28;20054;-82
2023/10/18 04:08:13;;;;;;;9.15;8.30;;;;;;;;;;4964900;28;20518;-80
2023/10/18 04:10:41;;;;;;;10.00;6.97;;;;;;;;;;4985265;28;20066;-80
2023/10/18 04:13:12;;;;;;;10.45;8.38;;;;;;;;;;4970942;28;20445;-80
2023/10/18 04:15:46;;;;;;;9.93;7.43;;;;;;;;;;4976354;28;20052;-80
2023/10/18 04:18:25;;;;;;;10.52;7.10;;;;;;;;;;4986574;28;21843;-80
2023/10/18 04:20:53;;;;;;;8.77;7.32;;;;;;;;;;4996858;28;20053;-80
2023/10/18 04:23:25;;;;;;;8.38;6.85;;;;;;;;;;4983133;28;20059;-80
2023/10/18 04:26:00;;;;;;;10.30;8.57;;;;;;;;;;4965244;28;20054;-80
2023/10/18 04:28:31;;;;;;;9.05;7.55;;;;;;;;;;4982568;28;20435;-80
2023/10/18 04:31:04;;;;;;;11.05;8.93;;;;;;;;;;5001010;28;20055;-80
2023/10/18 04:33:36;;;;;;;11.23;8.82;;;;;;;;;;4982276;28;20046;-80
2023/10/18 04:36:09;;;;;;;10.88;8.90;;;;;;;;;;4994263;28;20062;-80
2023/10/18 04:38:42;;;;;;;11.02;9.10;;;;;;;;;;4958854;28;20062;-82
2023/10/18 04:41:23;;;;;;;11.13;9.93;;;;;;;;;;4995210;28;20059;-82
2023/10/18 04:43:51;;;;;;;10.50;9.10;;;;;;;;;;4972963;28;20428;-82
2023/10/18 04:46:26;;;;;;;9.70;8.63;;;;;;;;;;4975592;28;20057;-82
2023/10/18 04:49:05;;;;;;;12.60;9.43;;;;;;;;;;4993943;28;20084;-82
2023/10/18 04:51:44;;;;;;;12.32;10.68;;;;;;;;;;4992733;28;20089;-82
2023/10/18 04:54:15;;;;;;;10.40;9.10;;;;;;;;;;4994123;28;20046;-82
2023/10/18 04:56:44;;;;;;;11.27;8.77;;;;;;;;;;4988714;28;20047;-82
2023/10/18 04:59:26;;;;;;;12.48;9.73;;;;;;;;;;4980753;28;20055;-81
2023/10/18 05:01:56;;;;;;;15.93;9.13;;;;;;;;;;4979613;28;20050;-80
2023/10/18 05:04:29;;;;;;;13.27;11.50;;;;;;;;;;4980623;28;20053;-80
2023/10/18 05:06:56;;;;;;;14.32;10.95;;;;;;;;;;4976153;28;20057;-80
2023/10/18 05:09:31;;;;;;;14.30;10.75;;;;;;;;;;4999360;28;20038;-80
2023/10/18 05:11:59;;;;;;;17.35;11.40;;;;;;;;;;4970164;28;20050;-80
2023/10/18 05:14:42;;;;;;;13.90;12.30;;;;;;;;;;4982912;28;20059;-80
2023/10/18 05:17:13;;;;;;;17.70;9.25;;;;;;;;;;4983049;28;20421;-80
2023/10/18 05:19:43;;;;;;;18.25;10.32;;;;;;;;;;4979482;28;20061;-80
2023/10/18 05:22:16;;;;;;;12.65;10.05;;;;;;;;;;4961382;28;20065;-80
2023/10/18 05:24:46;;;;;;;14.43;9.90;;;;;;;;;;4980253;28;20058;-80
2023/10/18 05:27:25;;;;;;;13.80;9.95;;;;;;;;;;4964095;28;20062;-80
2023/10/18 05:29:55;;;;;;;13.35;10.77;;;;;;;;;;4974191;28;20053;-80
2023/10/18 05:32:37;;;;;;;14.23;11.32;;;;;;;;;;4977549;28;20054;-80
2023/10/18 05:35:21;;;;;;;13.27;11.02;;;;;;;;;;4976812;28;20417;-80
2023/10/18 05:37:58;;;;;;;17.75;11.60;;;;;;;;;;4975398;28;20054;-80
2023/10/18 05:43:22;;;;;;;13.02;9.48;;;;;;;;;;4981463;28;20051;-80
2023/10/18 05:45:49;;;;;;;16.73;11.25;;;;;;;;;;4964297;28;20066;-80
2023/10/18 05:48:22;;;;;;;13.82;11.82;;;;;;;;;;4981564;28;20039;-81
2023/10/18 05:51:02;;;;;;;16.60;12.13;;;;;;;;;;5010567;28;20551;-81
2023/10/18 05:53:30;;;;;;;13.32;11.48;;;;;;;;;;4992995;28;20054;-81
2023/10/18 05:55:57;;;;;;;14.30;11.63;;;;;;;;;;4979084;28;20055;-81
2023/10/18 05:58:27;;;;;;;15.90;11.00;;;;;;;;;;4965950;28;20062;-81
2023/10/18 06:00:57;;;;;;;14.80;13.18;;;;;;;;;;5002544;28;20153;-82
2023/10/18 06:03:38;;;;;;;15.15;11.85;;;;;;;;;;4984367;28;20054;-81
2023/10/18 06:06:06;;;;;;;14.75;11.25;;;;;;;;;;4972192;28;20066;-81
2023/10/18 06:08:36;;;;;;;15.60;12.85;;;;;;;;;;4982412;28;20058;-81
2023/10/18 06:11:06;;;;;;;18.75;12.68;;;;;;;;;;4973260;28;20061;-82
2023/10/18 06:13:35;;;;;;;15.27;13.60;;;;;;;;;;4967744;28;20055;-82
2023/10/18 06:16:18;;;;;;;14.68;11.32;;;;;;;;;;4976267;28;20057;-81
2023/10/18 06:18:51;;;;;;;15.27;12.20;;;;;;;;;;4976960;28;20077;-81
2023/10/18 06:21:19;;;;;;;16.50;13.23;;;;;;;;;;4961318;28;20069;-82
2023/10/18 06:23:55;;;;;;;15.38;12.02;;;;;;;;;;4982203;28;20054;-82
2023/10/18 06:26:29;;;;;;;16.98;12.32;;;;;;;;;;4965823;28;20058;-81
2023/10/18 06:29:02;;;;;;;21.40;14.10;;;;;;;;;;4974845;28;20061;-82
2023/10/18 06:31:30;;;;;;;16.58;11.70;;;;;;;;;;4965927;28;20054;-82
2023/10/18 06:33:59;;;;;;;14.38;10.50;;;;;;;;;;4977993;28;20420;-82
2023/10/18 06:36:31;;;;;;;15.18;13.48;;;;;;;;;;4974572;28;20417;-82
2023/10/18 06:39:04;;;;;;;12.35;10.52;;;;;;;;;;4986591;28;20055;-82
2023/10/18 06:41:31;;;;;;;14.50;11.30;;;;;;;;;;4972003;28;20055;-81
2023/10/18 06:44:02;;;;;;;13.23;10.55;;;;;;;;;;4954906;28;20046;-81
2023/10/18 06:46:33;;;;;;;13.88;11.25;;;;;;;;;;4990424;28;20043;-82
2023/10/18 06:49:02;;;;;;;11.60;10.07;;;;;;;;;;4969653;28;20066;-81
2023/10/18 06:51:33;;;;;;;17.38;11.93;;;;;;;;;;4992099;28;20043;-81
2023/10/18 06:54:04;;;;;;;14.57;11.02;;;;;;;;;;4981723;28;20061;-82
2023/10/18 06:56:39;;;;;;;12.13;10.77;;;;;;;;;;4981455;28;20035;-82
2023/10/18 06:59:07;;;;;;;15.38;10.73;;;;;;;;;;4978087;28;20058;-81
2023/10/18 07:01:41;;;;;;;12.77;11.48;;;;;;;;;;4958019;28;20416;-82
2023/10/18 07:04:18;;;;;;;12.85;10.68;;;;;;;;;;4971546;22;20054;31
2023/10/18 07:06:49;;;;;;;13.57;11.88;;;;;;;;;;4996711;28;20403;-80
2023/10/18 07:12:04;;;;;;;15.77;11.30;;;;;;;;;;4958819;28;20059;-81
2023/10/18 07:14:32;;;;;;;13.70;10.30;;;;;;;;;;4991515;28;20057;-81
2023/10/18 07:17:01;;;;;;;13.80;11.77;;;;;;;;;;4978815;28;20054;-81
2023/10/18 07:19:29;;;;;;;12.30;10.70;;;;;;;;;;4976165;28;20050;-80
2023/10/18 07:21:58;;;;;;;15.40;10.50;;;;;;;;;;4974695;28;20447;-80
2023/10/18 07:24:32;;;;;;;10.27;9.15;;;;;;;;;;4983774;28;20046;-80
2023/10/18 07:27:03;;;;;;;12.70;9.85;;;;;;;;;;4963534;28;20059;-80
2023/10/18 07:29:36;;;;;;;13.70;10.82;;;;;;;;;;4976316;28;20058;-79
2023/10/18 07:32:06;;;;;;;10.73;9.25;;;;;;;;;;4974423;28;20051;-80
2023/10/18 07:34:36;;;;;;;12.02;9.80;;;;;;;;;;4989617;28;20421;-80
2023/10/18 07:37:17;;;;;;;11.80;9.93;;;;;;;;;;4978705;28;20497;-79
2023/10/18 07:39:45;;;;;;;11.98;10.18;;;;;;;;;;4974141;28;20851;-78
2023/10/18 07:42:13;;;;;;;13.88;10.27;;;;;;;;;;4978429;28;20509;-79
2023/10/18 07:44:46;;;;;;;11.13;9.52;;;;;;;;;;4973117;28;20054;-80
2023/10/18 07:47:18;;;;;;;13.10;9.82;;;;;;;;;;4971250;28;20065;-79
2023/10/18 07:49:46;;;;;;;12.70;10.55;;;;;;;;;;4983701;28;20414;-79
2023/10/18 07:52:14;;;;;;;12.75;10.45;;;;;;;;;;4968897;28;20069;-79
2023/10/18 07:54:44;;;;;;;13.32;11.95;;;;;;;;;;4972906;28;20049;-79
2023/10/18 07:57:16;;;;;;;10.00;9.00;;;;;;;;;;4965572;28;20066;-79
2023/10/18 07:59:48;;;;;;;13.32;10.05;;;;;;;;;;4987190;28;20054;-79
2023/10/18 08:02:19;;;;;;;10.68;9.57;;;;;;;;;;4979437;28;20047;-80
2023/10/18 08:04:47;;;;;;;11.93;9.50;;;;;;;;;;4976043;28;20524;-80
2023/10/18 08:07:19;;;;;;;13.90;10.07;;;;;;;;;;4983795;28;20050;-80
2023/10/18 08:09:51;;;;;;;15.57;10.85;;;;;;;;;;4975567;28;20050;-80
2023/10/18 08:12:22;;;;;;;14.43;10.18;;;;;;;;;;4974054;28;20047;-80
2023/10/18 08:14:54;;;;;;;11.93;10.02;;;;;;;;;;4983130;28;20062;-80
2023/10/18 08:17:30;;;;;;;12.27;9.90;;;;;;;;;;4975571;28;20050;-80
2023/10/18 08:22:46;;;;;;;11.85;9.25;;;;;;;;;;4982002;28;20062;-80
2023/10/18 08:25:24;;;;;;;11.07;9.27;;;;;;;;;;4985970;28;20527;-80
2023/10/18 08:27:53;;;;;;;11.48;9.43;;;;;;;;;;4992978;28;20054;-79
2023/10/18 08:30:38;;;;;;;11.65;9.52;;;;;;;;;;4972206;28;20059;-80
2023/10/18 08:33:07;;;;;;;13.05;11.23;;;;;;;;;;4975252;28;20061;-80
2023/10/18 08:35:37;;;;;;;14.65;10.32;;;;;;;;;;4975369;28;20492;-80
2023/10/18 08:38:08;;;;;;;12.55;9.73;;;;;;;;;;4971428;28;20042;-80
2023/10/18 08:40:38;;;;;;;11.93;10.73;;;;;;;;;;5001994;28;20453;-80
2023/10/18 08:43:14;;;;;;;9.82;8.80;;;;;;;;;;4982071;28;20054;-80
2023/10/18 08:45:46;;;;;;;10.77;8.98;;;;;;;;;;4973447;28;20057;-80
2023/10/18 08:48:16;;;;;;;9.80;8.52;;;;;;;;;;4990670;28;20081;-80
2023/10/18 08:50:44;;;;;;;13.25;9.18;;;;;;;;;;4989697;28;20401;-80
2023/10/18 08:53:15;;;;;;;10.07;9.10;;;;;;;;;;4989453;28;20065;-80
2023/10/18 08:55:45;;;;;;;10.18;8.52;;;;;;;;;;4977292;28;20059;-80
2023/10/18 08:58:18;;;;;;;10.45;8.77;;;;;;;;;;4965089;28;20046;-80
2023/10/18 09:01:09;;;;;;;8.48;7.63;;;;;;;;;;4998462;28;20043;-81
2023/10/18 09:03:36;;;;;;;12.75;9.35;;;;;;;;;;5021430;28;20066;-80
2023/10/18 09:06:09;;;;;;;9.88;8.55;;;;;;;;;;5002068;28;20057;-79
2023/10/18 09:08:41;;;;;;;11.38;9.10;;;;;;;;;;4997851;28;20050;-79
2023/10/18 09:11:20;;;;;;;10.98;8.80;;;;;;;;;;4984293;28;20065;-80
2023/10/18 09:14:07;;;;;;;9.75;8.68;;;;;;;;;;4992164;28;20051;-79
2023/10/18 09:16:37;;;;;;;9.82;7.35;;;;;;;;;;4993499;28;20047;-81
2023/10/18 09:19:05;;;;;;;15.10;8.48;;;;;;;;;;4998742;28;20063;-79
2023/10/18 09:21:36;;;;;;;10.88;8.38;;;;;;;;;;4990238;28;20050;-79
2023/10/18 09:24:07;;;;;;;;;;;;;;;;;;4979663;28;20074;-80
2023/10/18 09:26:40;;;;;;;7.43;6.63;;;;;;;;;;4977713;28;19926;-80
2023/10/18 09:29:08;;;;;;;9.43;7.65;;;;;;;;;;4985956;28;20061;-80
2023/10/18 09:31:36;;;;;;;9.35;7.65;;;;;;;;;;4977849;28;20054;-80
2023/10/18 09:34:08;;;;;;;9.70;8.10;;;;;;;;;;4986252;28;20528;-80
2023/10/18 09:36:39;;;;;;;7.93;7.22;;;;;;;;;;4982183;28;20065;-80
2023/10/18 09:39:10;;;;;;;8.98;6.97;;;;;;;;;;4986949;28;20054;-80
2023/10/18 09:41:40;;;;;;;10.70;7.35;;;;;;;;;;4993537;28;20042;-80
2023/10/18 09:44:07;;;;;;;10.75;6.65;;;;;;;;;;4971811;28;20053;-80
2023/10/18 09:46:37;;;;;;;9.15;7.30;;;;;;;;;;4982730;28;20043;-79
2023/10/18 09:49:09;;;;;;;9.40;7.20;;;;;;;;;;4981502;28;20057;-80
2023/10/18 09:51:40;;;;;;;8.82;7.88;;;;;;;;;;4980406;28;20046;-79
2023/10/18 09:54:14;;;;;;;8.55;6.78;;;;;;;;;;4969049;28;20062;-79
2023/10/18 09:56:45;;;;;;;10.40;6.95;;;;;;;;;;4980708;28;20416;-80
2023/10/18 09:59:16;;;;;;;7.95;6.65;;;;;;;;;;4982916;28;20054;-80
2023/10/18 10:02:07;;;;;;;8.77;6.93;;;;;;;;;;4976831;28;20054;-80
2023/10/18 10:04:36;;;;;;;9.95;6.82;;;;;;;;;;4975646;28;20119;-80
2023/10/18 10:09:59;;;;;;;7.18;6.43;;;;;;;;;;4993241;28;20058;-80
2023/10/18 10:12:31;;;;;;;8.90;6.85;;;;;;;;;;4993892;28;20058;-80
2023/10/18 10:14:58;;;;;;;8.40;7.07;;;;;;;;;;4960807;28;20067;-80
2023/10/18 10:17:29;;;;;;;7.55;5.75;;;;;;;;;;4963807;28;20058;-79
2023/10/18 10:19:58;;;;;;;8.32;6.28;;;;;;;;;;4976795;28;20066;-80
2023/10/18 10:22:26;;;;;;;6.82;5.38;;;;;;;;;;4987270;28;20433;-80
2023/10/18 10:25:04;;;;;;;7.78;7.07;;;;;;;;;;4960518;28;20065;-79
2023/10/18 10:27:49;;;;;;;7.93;6.43;;;;;;;;;;4970884;28;20050;-80
2023/10/18 10:30:25;;;;;;;6.30;5.50;;;;;;;;;;4985875;28;20049;-80
2023/10/18 10:32:54;;;;;;;7.05;5.47;;;;;;;;;;4992581;28;20042;-80
2023/10/18 10:35:25;;;;;;;6.80;5.53;;;;;;;;;;4992162;28;20054;-80
2023/10/18 10:37:53;;;;;;;8.02;5.55;;;;;;;;;;4978709;28;20055;-79
2023/10/18 10:40:38;;;;;;;8.80;5.35;;;;;;;;;;4993505;28;20053;-80
2023/10/18 10:43:09;;;;;;;8.65;6.60;;;;;;;;;;4987213;28;20038;-80
2023/10/18 10:45:43;;;;;;;6.85;5.50;;;;;;;;;;4989704;28;20058;-79
2023/10/18 10:48:36;;;;;;;9.25;6.00;;;;;;;;;;4984290;28;20046;-80
2023/10/18 10:51:13;;;;;;;6.78;5.53;;;;;;;;;;4992769;28;20073;-80
2023/10/18 10:53:48;;;;;;;5.95;5.25;;;;;;;;;;4989145;28;20386;-79
2023/10/18 10:56:20;;;;;;;8.57;6.43;;;;;;;;;;4986834;28;20054;-80
2023/10/18 10:58:55;;;;;;;6.65;5.55;;;;;;;;;;4977182;28;20045;-80
2023/10/18 11:01:39;;;;;;;5.80;5.30;;;;;;;;;;4972329;28;20043;-79
2023/10/18 11:04:14;;;;;;;5.90;5.30;;;;;;;;;;4993068;28;20497;-80
2023/10/18 11:06:43;;;;;;;6.28;5.20;;;;;;;;;;4992223;28;20039;-80
2023/10/18 11:09:16;;;;;;;6.60;5.35;;;;;;;;;;4980908;28;20047;-80
2023/10/18 11:11:47;;;;;;;6.13;5.50;;;;;;;;;;4989290;28;20409;-80
2023/10/18 11:14:18;;;;;;;5.53;4.97;;;;;;;;;;4992352;28;20065;-80
2023/10/18 11:16:53;;;;;;;11.48;6.57;;;;;;;;;;4985207;28;20046;-80
2023/10/18 11:19:28;;;;;;;6.70;6.18;;;;;;;;;;4981616;28;20051;-80
2023/10/18 11:21:58;;;;;;;7.97;4.78;;;;;;;;;;4986086;28;20051;-80
2023/10/18 11:24:27;;;;;;;7.93;5.53;;;;;;;;;;4982205;28;20046;-80
2023/10/18 11:26:58;;;;;;;5.13;4.63;;;;;;;;;;4988506;28;20042;-80
2023/10/18 11:29:27;;;;;;;5.82;4.75;;;;;;;;;;4972725;28;20050;-80
2023/10/18 11:31:56;;;;;;;5.20;4.70;;;;;;;;;;4984578;28;20047;-80
2023/10/18 11:34:23;;;;;;;7.10;4.75;;;;;;;;;;4980254;28;20378;-80
2023/10/18 11:36:54;;;;;;;5.05;4.45;;;;;;;;;;4991378;28;20046;-80
2023/10/18 11:39:23;;;;;;;6.82;4.72;;;;;;;;;;4971602;28;20047;-80
2023/10/18 11:41:58;;;;;;;5.63;4.20;;;;;;;;;;4983987;28;20035;-80
2023/10/18 11:44:31;;;;;;;7.95;5.50;;;;;;;;;;4973193;28;20507;-80
2023/10/18 11:47:02;;;;;;;;;;;;;;;;;;4987944;28;20057;-80
2023/10/18 11:49:35;;;;;;;5.75;4.95;;;;;;;;;;4976399;28;19922;-80
2023/10/18 11:52:02;;;;;;;6.03;4.68;;;;;;;;;;4973255;28;20055;-80
2023/10/18 11:54:31;;;;;;;6.65;4.65;;;;;;;;;;4966375;28;20047;-80
2023/10/18 11:56:59;;;;;;;6.00;5.40;;;;;;;;;;4977462;28;20051;-80
2023/10/18 11:59:28;;;;;;;5.25;4.75;;;;;;;;;;4964191;28;20052;-80
2023/10/18 12:02:04;;;;;;;7.43;5.57;;;;;;;;;;4975805;28;20475;-80
2023/10/18 12:04:37;;;;;;;7.25;4.85;;;;;;;;;;4986016;28;20065;-81
2023/10/18 12:07:08;;;;;;;6.22;4.75;;;;;;;;;;4991572;28;20043;-80
2023/10/18 12:09:44;;;;;;;4.88;3.85;;;;;;;;;;5012426;28;20050;-80
2023/10/18 12:12:19;;;;;;;5.82;4.78;;;;;;;;;;4990567;28;20508;-80
2023/10/18 12:14:46;;;;;;;5.47;4.25;;;;;;;;;;4996569;28;20050;-80
2023/10/18 12:17:15;;;;;;;5.05;4.55;;;;;;;;;;4962780;28;20043;-80
2023/10/18 12:19:43;;;;;;;6.90;4.38;;;;;;;;;;4992807;28;20528;-80
2023/10/18 12:22:13;;;;;;;4.28;3.88;;;;;;;;;;4972202;28;20058;-80
2023/10/18 12:24:43;;;;;;;7.93;4.82;;;;;;;;;;4960030;28;20073;-80
2023/10/18 12:27:21;;;;;;;4.28;3.70;;;;;;;;;;4967177;28;20057;-80
2023/10/18 12:29:51;;;;;;;8.00;4.15;;;;;;;;;;5004472;28;20062;-80
2023/10/18 12:32:26;;;;;;;5.53;4.20;;;;;;;;;;4987298;28;20074;-80
2023/10/18 12:34:57;;;;;;;6.50;5.03;;;;;;;;;;4977912;28;20505;-80
2023/10/18 12:37:25;;;;;;;6.38;4.63;;;;;;;;;;4998475;28;20053;-80
2023/10/18 12:39:58;;;;;;;4.53;4.03;;;;;;;;;;4972995;28;20047;-80
2023/10/18 12:42:26;;;;;;;6.15;3.78;;;;;;;;;;4993213;28;20494;-80
2023/10/18 12:44:55;;;;;;;5.00;4.45;;;;;;;;;;4990072;28;20063;-80
2023/10/18 12:47:23;;;;;;;5.85;3.72;;;;;;;;;;4967662;28;20042;-80
2023/10/18 12:49:51;;;;;;;4.05;3.55;;;;;;;;;;4974659;28;20524;-80
2023/10/18 12:57:54;;;;;;;;;;;;;;;;;;4982840;28;20050;-80
2023/10/18 13:00:24;;;;;;;4.70;4.07;;;;;;;;;;5023917;28;19929;-80
2023/10/18 13:05:43;;;;;;;5.28;4.38;;;;;;;;;;5017385;22;20500;-83
2023/10/18 13:08:22;;;;;;;4.63;4.18;;;;;;;;;;5005054;28;20053;-83
2023/10/18 13:10:59;;;;;;;3.30;3.00;;;;;;;;;;5029213;28;20495;-82
2023/10/18 13:13:30;;;;;;;4.53;3.80;;;;;;;;;;5027724;28;20060;-82
2023/10/18 13:15:57;;;;;;;4.95;4.18;;;;;;;;;;5030939;28;20455;-82
2023/10/18 13:18:26;;;;;;;4.72;4.20;;;;;;;;;;5019703;28;20046;-82
2023/10/18 13:20:54;;;;;;;4.22;3.40;;;;;;;;;;5029091;28;20482;-82
2023/10/18 13:23:21;;;;;;;6.28;3.50;;;;;;;;;;5027797;28;20061;-83
2023/10/18 13:25:52;;;;;;;3.95;3.55;;;;;;;;;;5023297;28;20416;-83
2023/10/18 13:28:33;;;;;;;5.05;4.07;;;;;;;;;;4999431;28;20056;-82
2023/10/18 13:31:04;;;;;;;4.00;3.58;;;;;;;;;;5027674;28;20530;-82
2023/10/18 13:33:38;;;;;;;4.68;3.35;;;;;;;;;;5019779;28;20046;-82
2023/10/18 13:36:10;;;;;;;4.68;3.20;;;;;;;;;;5009832;28;20060;-82
2023/10/18 13:38:40;;;;;;;6.45;3.53;;;;;;;;;;5027104;28;20041;-83
2023/10/18 13:41:07;;;;;;;4.90;4.40;;;;;;;;;;5026487;28;20057;-82
2023/10/18 13:43:35;;;;;;;4.07;3.67;;;;;;;;;;5005816;28;20049;-82
2023/10/18 13:46:06;;;;;;;4.75;3.40;;;;;;;;;;5028647;28;20060;-82
2023/10/18 13:48:38;;;;;;;4.90;3.47;;;;;;;;;;5004839;28;20053;-82
2023/10/18 13:51:10;;;;;;;4.90;3.17;;;;;;;;;;5007532;28;20054;-83
2023/10/18 13:53:39;;;;;;;3.40;3.10;;;;;;;;;;5005324;28;20053;-82
2023/10/18 13:56:12;;;;;;;3.58;3.28;;;;;;;;;;5007914;28;20053;-82
2023/10/18 13:58:41;;;;;;;4.60;2.97;;;;;;;;;;5019897;28;20057;-82
2023/10/18 14:01:14;;;;;;;4.78;3.17;;;;;;;;;;5022715;28;20050;-82
2023/10/18 14:03:43;;;;;;;2.90;2.63;;;;;;;;;;5005323;28;20045;-82
2023/10/18 14:06:14;;;;;;;3.63;3.30;;;;;;;;;;5007883;28;20058;-82
2023/10/18 14:08:43;;;;;;;6.28;3.53;;;;;;;;;;5009552;28;20076;-82
2023/10/18 14:11:13;;;;;;;5.70;3.72;;;;;;;;;;5002948;28;20053;-82
2023/10/18 14:13:43;;;;;;;3.72;3.15;;;;;;;;;;5021569;28;20289;-82
2023/10/18 14:16:17;;;;;;;4.32;3.92;;;;;;;;;;5008157;28;20068;-82
2023/10/18 14:18:47;;;;;;;2.90;2.45;;;;;;;;;;5025820;28;20050;-82
2023/10/18 14:21:15;;;;;;;3.20;2.55;;;;;;;;;;5016308;28;20053;-82
2023/10/18 14:23:44;;;;;;;3.45;2.88;;;;;;;;;;5022071;28;20057;-82
2023/10/18 14:26:14;;;;;;;4.38;3.10;;;;;;;;;;5023471;28;20045;-82
2023/10/18 14:28:41;;;;;;;5.22;3.22;;;;;;;;;;5022523;28;20045;-82
2023/10/18 14:31:14;;;;;;;4.28;3.42;;;;;;;;;;5017349;28;20038;-82
2023/10/18 14:33:49;;;;;;;3.70;3.30;;;;;;;;;;5021929;28;20140;-82
2023/10/18 14:36:20;;;;;;;4.90;3.75;;;;;;;;;;5024412;28;20061;-82
2023/10/18 14:38:49;;;;;;;4.50;3.80;;;;;;;;;;5003438;28;20054;-82
2023/10/18 14:41:20;;;;;;;4.13;3.58;;;;;;;;;;5007232;28;20064;-82
2023/10/18 14:43:51;;;;;;;4.05;2.97;;;;;;;;;;5020597;28;20046;-82
2023/10/18 14:46:19;;;;;;;3.35;2.90;;;;;;;;;;4991325;28;20051;-82
2023/10/18 14:48:51;;;;;;;3.35;3.05;;;;;;;;;;5001255;28;20041;-82
2023/10/18 14:51:21;;;;;;;3.55;3.10;;;;;;;;;;5023892;28;20068;-82
2023/10/18 14:53:51;;;;;;;4.20;3.50;;;;;;;;;;5014896;28;20060;-82
2023/10/18 14:56:19;;;;;;;4.65;3.67;;;;;;;;;;5013419;28;20045;-82
2023/10/18 14:58:47;;;;;;;3.90;3.25;;;;;;;;;;5021726;28;20048;-82
2023/10/18 15:01:17;;;;;;;4.15;3.40;;;;;;;;;;5038880;28;20057;-82
2023/10/18 15:03:48;;;;;;;4.32;3.83;;;;;;;;;;4991603;28;20045;-82
2023/10/18 15:06:17;;;;;;;5.53;3.50;;;;;;;;;;5024414;28;20053;-82
2023/10/18 15:08:45;;;;;;;4.32;3.65;;;;;;;;;;5023736;28;20052;-82
2023/10/18 15:11:14;;;;;;;4.43;3.33;;;;;;;;;;4998537;28;20053;-82
2023/10/18 15:13:43;;;;;;;6.30;4.05;;;;;;;;;;5019327;28;20113;-81
2023/10/18 15:16:12;;;;;;;4.60;3.50;;;;;;;;;;5022870;28;20062;-81
2023/10/18 15:18:39;;;;;;;4.03;3.47;;;;;;;;;;4994845;28;20068;-82
2023/10/18 15:21:09;;;;;;;4.53;3.28;;;;;;;;;;5009001;28;20509;-82